Sapulpa, OK (74066)

5:14 PM CST on February 09, 2016 (GMT -0600)
Ridgeoak Rd-Sahoma Lake | | Change Station
CLOSE
Current Station
Personal Weather Station
Location: Sapulpa, OK
Elevation: 764 ft
Nearby Weather Stations

Elev 764 ft 36.03 °N, 96.14 °W | Updated 2 minutes ago

Clear
Clear
46.1 °F
Feels Like 45 °F
N
3.4
Wind Variable Wind from North
Gusts 8.5 mph

Today
High -- | Low -- °F
--% Chance of Precip.
Yesterday
High -- | Low -- °F
Precip. -- in
Pressure 30.27 in
Visibility 10.0 miles
Clouds Clear
Windchill 45 °F
Dew Point 17 °F
Humidity 31%
Rainfall 0.00 in
Snow Depth Not available.
7:18 AM 5:59 PM
New Moon, 2% visible
METAR KRVS 092253Z 34010G26KT 310V010 10SM CLR 08/M10 A3025 RMK AO2 PK WND 31026/2246 SLP251 T00831100
Pressure 30.27 in
Visibility 10.0 miles
Clouds Clear
Windchill 45 °F
Dew Point 17 °F
Humidity 31%
Rainfall 0.00 in
Snow Depth Not available.
7:18 AM 5:59 PM
New Moon, 2% visible
METAR KRVS 092253Z 34010G26KT 310V010 10SM CLR 08/M10 A3025 RMK AO2 PK WND 31026/2246 SLP251 T00831100

10-Day Weather Forecast

Almanac

Astronomy

Feb. 09, 2016 Rise Set
Actual Time
Civil Twilight
Nautical Twilight
Astronomical Twilight
Moon
Length of Visible Light
Length of Day
Tomorrow will be .
, % of the Moon is Illuminated

Today's Extremes

State Highs State Lows

Community

WunderPhotos

Upload Photos

1,891,728 photos uploaded!

WunderBlog® & News

Nearby

Air Quality

  Air Quality AQ Index Pollutant
Not available.

Snow Depth

Station Depth Elevation

Earthquake Activity

City Distance Mag. Time & Date
Minimum magnitude displayed is 2.5.

Coastal Water Temperatures

Place Temperature

Stations

Nearby Weather Stations

Station Location Temp. Windchill Dew Point Humidity Wind Precip. Elev Updated Type
                   

Watches & Warnings

There are currently no watches in effect.